sensor_id;sensor_type;location;lat;lon;timestamp;P1;durP1;ratioP1;P2;durP2;ratioP2
66012;SDS011;52783;50.502;8.190;2023-05-07T00:00:21;3.15;;;2.00;;
66012;SDS011;52783;50.502;8.190;2023-05-07T00:02:46;1.50;;;1.40;;
66012;SDS011;52783;50.502;8.190;2023-05-07T00:05:12;1.65;;;1.55;;
66012;SDS011;52783;50.502;8.190;2023-05-07T00:07:39;2.20;;;1.60;;
66012;SDS011;52783;50.502;8.190;2023-05-07T00:10:05;3.05;;;1.77;;
66012;SDS011;52783;50.502;8.190;2023-05-07T00:12:32;1.75;;;1.45;;
66012;SDS011;52783;50.502;8.190;2023-05-07T00:15:04;3.28;;;2.00;;
66012;SDS011;52783;50.502;8.190;2023-05-07T00:17:30;3.28;;;1.85;;
66012;SDS011;52783;50.502;8.190;2023-05-07T00:19:57;2.00;;;1.90;;
66012;SDS011;52783;50.502;8.190;2023-05-07T00:22:23;1.60;;;1.50;;
66012;SDS011;52783;50.502;8.190;2023-05-07T00:24:48;1.85;;;1.70;;
66012;SDS011;52783;50.502;8.190;2023-05-07T00:27:14;2.33;;;1.90;;
66012;SDS011;52783;50.502;8.190;2023-05-07T00:29:40;2.47;;;1.52;;
66012;SDS011;52783;50.502;8.190;2023-05-07T00:32:05;3.03;;;1.52;;
66012;SDS011;52783;50.502;8.190;2023-05-07T00:34:31;1.80;;;1.70;;
66012;SDS011;52783;50.502;8.190;2023-05-07T00:36:56;4.07;;;2.00;;
66012;SDS011;52783;50.502;8.190;2023-05-07T00:39:22;1.85;;;1.75;;
66012;SDS011;52783;50.502;8.190;2023-05-07T00:41:47;1.83;;;1.70;;
66012;SDS011;52783;50.502;8.190;2023-05-07T00:44:13;3.28;;;2.08;;
66012;SDS011;52783;50.502;8.190;2023-05-07T00:46:39;3.40;;;1.90;;
66012;SDS011;52783;50.502;8.190;2023-05-07T00:49:05;3.47;;;1.88;;
66012;SDS011;52783;50.502;8.190;2023-05-07T00:51:31;3.25;;;2.00;;
66012;SDS011;52783;50.502;8.190;2023-05-07T00:53:59;2.17;;;1.92;;
66012;SDS011;52783;50.502;8.190;2023-05-07T00:56:25;2.58;;;2.00;;
66012;SDS011;52783;50.502;8.190;2023-05-07T00:58:52;2.40;;;1.90;;
66012;SDS011;52783;50.502;8.190;2023-05-07T01:01:18;2.70;;;1.90;;
66012;SDS011;52783;50.502;8.190;2023-05-07T01:03:43;3.47;;;2.00;;
66012;SDS011;52783;50.502;8.190;2023-05-07T01:06:09;2.10;;;1.90;;
66012;SDS011;52783;50.502;8.190;2023-05-07T01:08:37;4.68;;;2.10;;
66012;SDS011;52783;50.502;8.190;2023-05-07T01:11:07;3.42;;;2.00;;
66012;SDS011;52783;50.502;8.190;2023-05-07T01:13:34;4.88;;;2.33;;
66012;SDS011;52783;50.502;8.190;2023-05-07T01:16:01;2.80;;;1.85;;
66012;SDS011;52783;50.502;8.190;2023-05-07T01:18:28;2.53;;;1.90;;
66012;SDS011;52783;50.502;8.190;2023-05-07T01:20:55;4.65;;;2.20;;
66012;SDS011;52783;50.502;8.190;2023-05-07T01:23:23;4.93;;;2.08;;
66012;SDS011;52783;50.502;8.190;2023-05-07T01:25:52;5.40;;;2.40;;
66012;SDS011;52783;50.502;8.190;2023-05-07T01:28:19;6.05;;;2.13;;
66012;SDS011;52783;50.502;8.190;2023-05-07T01:30:46;4.47;;;2.28;;
66012;SDS011;52783;50.502;8.190;2023-05-07T01:33:15;3.25;;;2.13;;
66012;SDS011;52783;50.502;8.190;2023-05-07T01:35:47;2.80;;;2.15;;
66012;SDS011;52783;50.502;8.190;2023-05-07T01:38:15;4.90;;;2.70;;
66012;SDS011;52783;50.502;8.190;2023-05-07T01:40:41;9.57;;;2.40;;
66012;SDS011;52783;50.502;8.190;2023-05-07T01:43:07;7.45;;;2.45;;
66012;SDS011;52783;50.502;8.190;2023-05-07T01:45:34;7.80;;;2.47;;
66012;SDS011;52783;50.502;8.190;2023-05-07T01:48:01;6.57;;;2.67;;
66012;SDS011;52783;50.502;8.190;2023-05-07T01:50:27;3.13;;;2.20;;
66012;SDS011;52783;50.502;8.190;2023-05-07T01:52:54;3.70;;;2.38;;
66012;SDS011;52783;50.502;8.190;2023-05-07T01:55:20;4.53;;;2.50;;
66012;SDS011;52783;50.502;8.190;2023-05-07T01:57:46;4.03;;;2.35;;
66012;SDS011;52783;50.502;8.190;2023-05-07T02:00:12;2.67;;;2.35;;
66012;SDS011;52783;50.502;8.190;2023-05-07T02:02:38;5.93;;;2.70;;
66012;SDS011;52783;50.502;8.190;2023-05-07T02:05:03;2.80;;;2.40;;
66012;SDS011;52783;50.502;8.190;2023-05-07T02:07:30;4.38;;;2.55;;
66012;SDS011;52783;50.502;8.190;2023-05-07T02:09:55;3.22;;;2.40;;
66012;SDS011;52783;50.502;8.190;2023-05-07T02:12:22;4.22;;;2.92;;
66012;SDS011;52783;50.502;8.190;2023-05-07T02:14:47;4.25;;;2.80;;
66012;SDS011;52783;50.502;8.190;2023-05-07T02:17:13;4.20;;;2.45;;
66012;SDS011;52783;50.502;8.190;2023-05-07T02:19:39;4.20;;;2.83;;
66012;SDS011;52783;50.502;8.190;2023-05-07T02:22:04;3.47;;;2.80;;
66012;SDS011;52783;50.502;8.190;2023-05-07T02:24:30;6.50;;;2.28;;
66012;SDS011;52783;50.502;8.190;2023-05-07T02:26:55;3.95;;;2.70;;
66012;SDS011;52783;50.502;8.190;2023-05-07T02:29:21;4.60;;;2.65;;
66012;SDS011;52783;50.502;8.190;2023-05-07T02:31:47;2.85;;;2.47;;
66012;SDS011;52783;50.502;8.190;2023-05-07T02:34:15;4.63;;;3.08;;
66012;SDS011;52783;50.502;8.190;2023-05-07T02:36:41;2.72;;;2.50;;
66012;SDS011;52783;50.502;8.190;2023-05-07T02:39:07;6.70;;;2.40;;
66012;SDS011;52783;50.502;8.190;2023-05-07T02:41:33;4.50;;;2.88;;
66012;SDS011;52783;50.502;8.190;2023-05-07T02:43:58;4.85;;;2.80;;
66012;SDS011;52783;50.502;8.190;2023-05-07T02:46:24;5.82;;;2.22;;
66012;SDS011;52783;50.502;8.190;2023-05-07T02:48:49;2.95;;;2.30;;
66012;SDS011;52783;50.502;8.190;2023-05-07T02:51:16;4.40;;;2.78;;
66012;SDS011;52783;50.502;8.190;2023-05-07T02:53:45;4.80;;;2.80;;
66012;SDS011;52783;50.502;8.190;2023-05-07T02:56:11;5.22;;;2.67;;
66012;SDS011;52783;50.502;8.190;2023-05-07T02:58:37;3.67;;;2.30;;
66012;SDS011;52783;50.502;8.190;2023-05-07T03:01:04;5.40;;;2.70;;
66012;SDS011;52783;50.502;8.190;2023-05-07T03:03:30;4.65;;;2.60;;
66012;SDS011;52783;50.502;8.190;2023-05-07T03:05:56;2.63;;;1.90;;
66012;SDS011;52783;50.502;8.190;2023-05-07T03:08:21;3.78;;;2.42;;
66012;SDS011;52783;50.502;8.190;2023-05-07T03:10:47;5.88;;;2.70;;
66012;SDS011;52783;50.502;8.190;2023-05-07T03:13:13;2.20;;;2.00;;
66012;SDS011;52783;50.502;8.190;2023-05-07T03:15:39;3.65;;;2.45;;
66012;SDS011;52783;50.502;8.190;2023-05-07T03:18:04;3.22;;;2.67;;
66012;SDS011;52783;50.502;8.190;2023-05-07T03:20:30;2.58;;;2.15;;
66012;SDS011;52783;50.502;8.190;2023-05-07T03:22:55;2.42;;;2.20;;
66012;SDS011;52783;50.502;8.190;2023-05-07T03:25:21;6.32;;;3.10;;
66012;SDS011;52783;50.502;8.190;2023-05-07T03:27:47;5.10;;;2.35;;
66012;SDS011;52783;50.502;8.190;2023-05-07T03:30:12;5.85;;;2.67;;
66012;SDS011;52783;50.502;8.190;2023-05-07T03:32:38;5.10;;;2.80;;
66012;SDS011;52783;50.502;8.190;2023-05-07T03:35:04;3.42;;;2.63;;
66012;SDS011;52783;50.502;8.190;2023-05-07T03:37:29;3.63;;;2.65;;
66012;SDS011;52783;50.502;8.190;2023-05-07T03:39:55;4.78;;;2.70;;
66012;SDS011;52783;50.502;8.190;2023-05-07T03:42:20;4.53;;;2.45;;
66012;SDS011;52783;50.502;8.190;2023-05-07T03:44:46;5.45;;;3.08;;
66012;SDS011;52783;50.502;8.190;2023-05-07T03:47:12;8.30;;;2.78;;
66012;SDS011;52783;50.502;8.190;2023-05-07T03:49:38;5.97;;;2.90;;
66012;SDS011;52783;50.502;8.190;2023-05-07T03:52:04;4.28;;;3.10;;
66012;SDS011;52783;50.502;8.190;2023-05-07T03:54:30;3.83;;;2.95;;
66012;SDS011;52783;50.502;8.190;2023-05-07T03:56:56;5.90;;;2.97;;
66012;SDS011;52783;50.502;8.190;2023-05-07T03:59:22;6.32;;;3.15;;
66012;SDS011;52783;50.502;8.190;2023-05-07T04:01:47;4.38;;;2.80;;
66012;SDS011;52783;50.502;8.190;2023-05-07T04:04:16;4.80;;;2.85;;
66012;SDS011;52783;50.502;8.190;2023-05-07T04:06:41;3.13;;;2.78;;
66012;SDS011;52783;50.502;8.190;2023-05-07T04:09:07;5.72;;;3.08;;
66012;SDS011;52783;50.502;8.190;2023-05-07T04:11:33;4.13;;;2.80;;
66012;SDS011;52783;50.502;8.190;2023-05-07T04:14:00;4.35;;;2.53;;
66012;SDS011;52783;50.502;8.190;2023-05-07T04:16:26;3.72;;;2.55;;
66012;SDS011;52783;50.502;8.190;2023-05-07T04:18:51;8.65;;;2.80;;
66012;SDS011;52783;50.502;8.190;2023-05-07T04:21:17;3.55;;;2.53;;
66012;SDS011;52783;50.502;8.190;2023-05-07T04:23:44;5.20;;;2.80;;
66012;SDS011;52783;50.502;8.190;2023-05-07T04:26:09;10.00;;;2.80;;
66012;SDS011;52783;50.502;8.190;2023-05-07T04:28:35;3.78;;;2.72;;
66012;SDS011;52783;50.502;8.190;2023-05-07T04:31:01;6.88;;;3.40;;
66012;SDS011;52783;50.502;8.190;2023-05-07T04:33:27;2.55;;;2.35;;
66012;SDS011;52783;50.502;8.190;2023-05-07T04:35:52;3.60;;;2.70;;
66012;SDS011;52783;50.502;8.190;2023-05-07T04:38:18;4.07;;;2.90;;
66012;SDS011;52783;50.502;8.190;2023-05-07T04:40:44;3.45;;;3.13;;
66012;SDS011;52783;50.502;8.190;2023-05-07T04:43:09;3.70;;;3.08;;
66012;SDS011;52783;50.502;8.190;2023-05-07T04:45:35;6.15;;;3.15;;
66012;SDS011;52783;50.502;8.190;2023-05-07T04:48:01;5.75;;;2.85;;
66012;SDS011;52783;50.502;8.190;2023-05-07T04:50:27;4.82;;;3.08;;
66012;SDS011;52783;50.502;8.190;2023-05-07T04:52:53;3.97;;;2.90;;
66012;SDS011;52783;50.502;8.190;2023-05-07T04:55:18;4.35;;;3.10;;
66012;SDS011;52783;50.502;8.190;2023-05-07T04:57:44;6.28;;;3.20;;
66012;SDS011;52783;50.502;8.190;2023-05-07T05:00:10;3.88;;;3.00;;
66012;SDS011;52783;50.502;8.190;2023-05-07T05:02:39;4.45;;;3.05;;
66012;SDS011;52783;50.502;8.190;2023-05-07T05:05:04;5.45;;;3.03;;
66012;SDS011;52783;50.502;8.190;2023-05-07T05:07:30;4.70;;;3.03;;
66012;SDS011;52783;50.502;8.190;2023-05-07T05:09:56;5.93;;;3.33;;
66012;SDS011;52783;50.502;8.190;2023-05-07T05:12:22;6.30;;;3.53;;
66012;SDS011;52783;50.502;8.190;2023-05-07T05:14:48;3.90;;;2.85;;
66012;SDS011;52783;50.502;8.190;2023-05-07T05:17:13;7.32;;;3.67;;
66012;SDS011;52783;50.502;8.190;2023-05-07T05:19:39;6.95;;;3.10;;
66012;SDS011;52783;50.502;8.190;2023-05-07T05:22:04;4.72;;;3.33;;
66012;SDS011;52783;50.502;8.190;2023-05-07T05:24:31;6.60;;;3.65;;
66012;SDS011;52783;50.502;8.190;2023-05-07T05:26:56;4.45;;;3.20;;
66012;SDS011;52783;50.502;8.190;2023-05-07T05:29:23;5.47;;;3.42;;
66012;SDS011;52783;50.502;8.190;2023-05-07T05:31:48;7.78;;;3.30;;
66012;SDS011;52783;50.502;8.190;2023-05-07T05:34:14;6.50;;;3.55;;
66012;SDS011;52783;50.502;8.190;2023-05-07T05:36:40;6.00;;;3.63;;
66012;SDS011;52783;50.502;8.190;2023-05-07T05:39:05;4.97;;;3.35;;
66012;SDS011;52783;50.502;8.190;2023-05-07T05:41:31;4.35;;;3.67;;
66012;SDS011;52783;50.502;8.190;2023-05-07T05:43:57;4.15;;;3.20;;
66012;SDS011;52783;50.502;8.190;2023-05-07T05:46:22;6.97;;;3.95;;
66012;SDS011;52783;50.502;8.190;2023-05-07T05:48:48;6.05;;;3.90;;
66012;SDS011;52783;50.502;8.190;2023-05-07T05:51:13;4.75;;;3.70;;
66012;SDS011;52783;50.502;8.190;2023-05-07T05:53:39;8.52;;;4.32;;
66012;SDS011;52783;50.502;8.190;2023-05-07T05:56:05;6.03;;;4.07;;
66012;SDS011;52783;50.502;8.190;2023-05-07T05:58:30;6.75;;;4.05;;
66012;SDS011;52783;50.502;8.190;2023-05-07T06:00:56;5.47;;;3.88;;
66012;SDS011;52783;50.502;8.190;2023-05-07T06:03:23;6.10;;;4.35;;
66012;SDS011;52783;50.502;8.190;2023-05-07T06:05:48;6.28;;;4.28;;
66012;SDS011;52783;50.502;8.190;2023-05-07T06:08:14;5.45;;;4.25;;
66012;SDS011;52783;50.502;8.190;2023-05-07T06:10:39;7.57;;;4.85;;
66012;SDS011;52783;50.502;8.190;2023-05-07T06:13:05;6.32;;;4.30;;
66012;SDS011;52783;50.502;8.190;2023-05-07T06:15:31;10.70;;;4.70;;
66012;SDS011;52783;50.502;8.190;2023-05-07T06:17:56;6.40;;;4.40;;
66012;SDS011;52783;50.502;8.190;2023-05-07T06:20:22;6.13;;;4.47;;
66012;SDS011;52783;50.502;8.190;2023-05-07T06:22:48;7.47;;;4.68;;
66012;SDS011;52783;50.502;8.190;2023-05-07T06:25:13;10.32;;;5.00;;
66012;SDS011;52783;50.502;8.190;2023-05-07T06:27:39;10.00;;;4.60;;
66012;SDS011;52783;50.502;8.190;2023-05-07T06:30:05;5.68;;;4.38;;
66012;SDS011;52783;50.502;8.190;2023-05-07T06:32:32;11.65;;;4.88;;
66012;SDS011;52783;50.502;8.190;2023-05-07T06:34:57;10.18;;;5.05;;
66012;SDS011;52783;50.502;8.190;2023-05-07T06:37:23;6.60;;;5.07;;
66012;SDS011;52783;50.502;8.190;2023-05-07T06:39:49;8.60;;;5.50;;
66012;SDS011;52783;50.502;8.190;2023-05-07T06:42:14;6.47;;;4.63;;
66012;SDS011;52783;50.502;8.190;2023-05-07T06:44:40;7.32;;;5.45;;
66012;SDS011;52783;50.502;8.190;2023-05-07T06:47:05;8.18;;;4.85;;
66012;SDS011;52783;50.502;8.190;2023-05-07T06:49:31;8.05;;;4.90;;
66012;SDS011;52783;50.502;8.190;2023-05-07T06:51:57;9.75;;;5.60;;
66012;SDS011;52783;50.502;8.190;2023-05-07T06:54:23;7.03;;;4.97;;
66012;SDS011;52783;50.502;8.190;2023-05-07T06:56:48;7.65;;;4.78;;
66012;SDS011;52783;50.502;8.190;2023-05-07T06:59:14;7.32;;;5.55;;
66012;SDS011;52783;50.502;8.190;2023-05-07T07:01:40;8.88;;;5.30;;
66012;SDS011;52783;50.502;8.190;2023-05-07T07:04:05;9.38;;;4.47;;
66012;SDS011;52783;50.502;8.190;2023-05-07T07:06:31;7.35;;;5.03;;
66012;SDS011;52783;50.502;8.190;2023-05-07T07:08:58;9.18;;;5.00;;
66012;SDS011;52783;50.502;8.190;2023-05-07T07:11:24;8.00;;;4.70;;
66012;SDS011;52783;50.502;8.190;2023-05-07T07:13:50;9.93;;;6.03;;
66012;SDS011;52783;50.502;8.190;2023-05-07T07:16:15;5.63;;;3.90;;
66012;SDS011;52783;50.502;8.190;2023-05-07T07:18:41;7.85;;;4.85;;
66012;SDS011;52783;50.502;8.190;2023-05-07T07:21:07;7.03;;;4.78;;
66012;SDS011;52783;50.502;8.190;2023-05-07T07:23:33;8.40;;;4.93;;
66012;SDS011;52783;50.502;8.190;2023-05-07T07:25:58;7.00;;;4.68;;
66012;SDS011;52783;50.502;8.190;2023-05-07T07:28:24;6.03;;;4.70;;
66012;SDS011;52783;50.502;8.190;2023-05-07T07:30:50;10.82;;;5.38;;
66012;SDS011;52783;50.502;8.190;2023-05-07T07:33:15;5.90;;;4.68;;
66012;SDS011;52783;50.502;8.190;2023-05-07T07:35:41;9.55;;;4.75;;
66012;SDS011;52783;50.502;8.190;2023-05-07T07:38:07;6.85;;;5.00;;
66012;SDS011;52783;50.502;8.190;2023-05-07T07:40:34;7.35;;;4.93;;
66012;SDS011;52783;50.502;8.190;2023-05-07T07:43:00;10.65;;;4.45;;
66012;SDS011;52783;50.502;8.190;2023-05-07T07:45:26;6.70;;;4.53;;
66012;SDS011;52783;50.502;8.190;2023-05-07T07:47:52;9.52;;;4.47;;
66012;SDS011;52783;50.502;8.190;2023-05-07T07:50:17;7.13;;;4.82;;
66012;SDS011;52783;50.502;8.190;2023-05-07T07:52:43;6.15;;;5.00;;
66012;SDS011;52783;50.502;8.190;2023-05-07T07:55:09;6.50;;;5.05;;
66012;SDS011;52783;50.502;8.190;2023-05-07T07:57:35;7.10;;;5.10;;
66012;SDS011;52783;50.502;8.190;2023-05-07T08:00:00;7.50;;;5.28;;
66012;SDS011;52783;50.502;8.190;2023-05-07T08:02:27;8.45;;;5.40;;
66012;SDS011;52783;50.502;8.190;2023-05-07T08:04:52;8.35;;;5.72;;
66012;SDS011;52783;50.502;8.190;2023-05-07T08:07:18;6.78;;;4.75;;
66012;SDS011;52783;50.502;8.190;2023-05-07T08:09:45;6.50;;;5.03;;
66012;SDS011;52783;50.502;8.190;2023-05-07T08:12:11;7.45;;;5.20;;
66012;SDS011;52783;50.502;8.190;2023-05-07T08:14:37;11.70;;;5.30;;
66012;SDS011;52783;50.502;8.190;2023-05-07T08:17:02;8.60;;;5.57;;
66012;SDS011;52783;50.502;8.190;2023-05-07T08:19:28;11.68;;;5.45;;
66012;SDS011;52783;50.502;8.190;2023-05-07T08:21:54;7.00;;;4.93;;
66012;SDS011;52783;50.502;8.190;2023-05-07T08:24:20;8.38;;;6.05;;
66012;SDS011;52783;50.502;8.190;2023-05-07T08:26:46;7.85;;;5.53;;
66012;SDS011;52783;50.502;8.190;2023-05-07T08:29:11;7.68;;;5.55;;
66012;SDS011;52783;50.502;8.190;2023-05-07T08:31:37;11.35;;;5.78;;
66012;SDS011;52783;50.502;8.190;2023-05-07T08:34:05;11.20;;;5.97;;
66012;SDS011;52783;50.502;8.190;2023-05-07T08:36:31;9.70;;;5.85;;
66012;SDS011;52783;50.502;8.190;2023-05-07T08:38:57;7.15;;;5.88;;
66012;SDS011;52783;50.502;8.190;2023-05-07T08:41:24;10.45;;;6.10;;
66012;SDS011;52783;50.502;8.190;2023-05-07T08:43:50;12.52;;;5.78;;
66012;SDS011;52783;50.502;8.190;2023-05-07T08:46:20;10.65;;;5.47;;
66012;SDS011;52783;50.502;8.190;2023-05-07T08:48:49;9.77;;;5.40;;
66012;SDS011;52783;50.502;8.190;2023-05-07T08:51:16;12.63;;;6.10;;
66012;SDS011;52783;50.502;8.190;2023-05-07T08:53:46;7.47;;;5.47;;
66012;SDS011;52783;50.502;8.190;2023-05-07T08:56:13;7.63;;;5.57;;
66012;SDS011;52783;50.502;8.190;2023-05-07T08:58:40;14.93;;;5.75;;
66012;SDS011;52783;50.502;8.190;2023-05-07T09:01:07;9.80;;;4.93;;
66012;SDS011;52783;50.502;8.190;2023-05-07T09:03:34;9.30;;;5.78;;
66012;SDS011;52783;50.502;8.190;2023-05-07T09:06:01;7.32;;;5.20;;
66012;SDS011;52783;50.502;8.190;2023-05-07T09:08:27;8.90;;;5.45;;
66012;SDS011;52783;50.502;8.190;2023-05-07T09:10:53;11.05;;;4.97;;
66012;SDS011;52783;50.502;8.190;2023-05-07T09:13:19;10.18;;;5.90;;
66012;SDS011;52783;50.502;8.190;2023-05-07T09:15:45;11.80;;;5.30;;
66012;SDS011;52783;50.502;8.190;2023-05-07T09:18:11;6.85;;;5.25;;
66012;SDS011;52783;50.502;8.190;2023-05-07T09:20:37;7.13;;;5.30;;
66012;SDS011;52783;50.502;8.190;2023-05-07T09:23:03;10.82;;;5.70;;
66012;SDS011;52783;50.502;8.190;2023-05-07T09:25:29;7.47;;;5.15;;
66012;SDS011;52783;50.502;8.190;2023-05-07T09:27:56;9.52;;;5.38;;
66012;SDS011;52783;50.502;8.190;2023-05-07T09:30:22;10.30;;;5.20;;
66012;SDS011;52783;50.502;8.190;2023-05-07T09:32:48;7.20;;;4.63;;
66012;SDS011;52783;50.502;8.190;2023-05-07T09:35:16;11.80;;;5.90;;
66012;SDS011;52783;50.502;8.190;2023-05-07T09:37:43;6.40;;;5.20;;
66012;SDS011;52783;50.502;8.190;2023-05-07T09:40:08;7.30;;;5.22;;
66012;SDS011;52783;50.502;8.190;2023-05-07T09:43:08;6.55;;;5.38;;
66012;SDS011;52783;50.502;8.190;2023-05-07T09:45:37;9.75;;;5.35;;
66012;SDS011;52783;50.502;8.190;2023-05-07T09:48:04;10.30;;;5.18;;
66012;SDS011;52783;50.502;8.190;2023-05-07T09:50:32;6.85;;;4.47;;
66012;SDS011;52783;50.502;8.190;2023-05-07T09:53:01;7.53;;;4.43;;
66012;SDS011;52783;50.502;8.190;2023-05-07T09:55:28;6.53;;;4.43;;
66012;SDS011;52783;50.502;8.190;2023-05-07T09:57:55;9.73;;;5.00;;
66012;SDS011;52783;50.502;8.190;2023-05-07T10:00:23;7.18;;;5.45;;
66012;SDS011;52783;50.502;8.190;2023-05-07T10:02:51;8.55;;;4.75;;
66012;SDS011;52783;50.502;8.190;2023-05-07T10:05:21;7.22;;;5.10;;
66012;SDS011;52783;50.502;8.190;2023-05-07T10:07:47;5.72;;;4.63;;
66012;SDS011;52783;50.502;8.190;2023-05-07T10:10:13;7.32;;;5.53;;
66012;SDS011;52783;50.502;8.190;2023-05-07T10:12:40;7.07;;;4.95;;
66012;SDS011;52783;50.502;8.190;2023-05-07T10:15:06;12.25;;;5.30;;
66012;SDS011;52783;50.502;8.190;2023-05-07T10:17:35;9.40;;;4.68;;
66012;SDS011;52783;50.502;8.190;2023-05-07T10:20:01;10.23;;;5.35;;
66012;SDS011;52783;50.502;8.190;2023-05-07T10:22:27;9.02;;;5.60;;
66012;SDS011;52783;50.502;8.190;2023-05-07T10:24:55;8.98;;;5.45;;
66012;SDS011;52783;50.502;8.190;2023-05-07T10:27:24;9.45;;;5.57;;
66012;SDS011;52783;50.502;8.190;2023-05-07T10:35:17;7.90;;;5.50;;
66012;SDS011;52783;50.502;8.190;2023-05-07T10:37:45;8.45;;;6.32;;
66012;SDS011;52783;50.502;8.190;2023-05-07T10:40:11;7.88;;;5.47;;
66012;SDS011;52783;50.502;8.190;2023-05-07T10:42:37;6.55;;;4.88;;
66012;SDS011;52783;50.502;8.190;2023-05-07T10:45:13;7.93;;;5.28;;
66012;SDS011;52783;50.502;8.190;2023-05-07T10:50:36;18.17;;;5.82;;
66012;SDS011;52783;50.502;8.190;2023-05-07T10:55:49;7.22;;;4.95;;
66012;SDS011;52783;50.502;8.190;2023-05-07T11:00:55;12.13;;;5.50;;
66012;SDS011;52783;50.502;8.190;2023-05-07T11:03:26;7.70;;;5.45;;
66012;SDS011;52783;50.502;8.190;2023-05-07T11:11:43;7.70;;;5.43;;
66012;SDS011;52783;50.502;8.190;2023-05-07T11:14:13;7.00;;;5.32;;
66012;SDS011;52783;50.502;8.190;2023-05-07T11:16:40;10.23;;;5.82;;
66012;SDS011;52783;50.502;8.190;2023-05-07T11:19:08;8.23;;;5.63;;
66012;SDS011;52783;50.502;8.190;2023-05-07T11:21:37;7.47;;;5.53;;
66012;SDS011;52783;50.502;8.190;2023-05-07T11:24:03;7.35;;;5.18;;
66012;SDS011;52783;50.502;8.190;2023-05-07T11:26:31;6.78;;;5.18;;
66012;SDS011;52783;50.502;8.190;2023-05-07T11:29:10;7.82;;;5.60;;
66012;SDS011;52783;50.502;8.190;2023-05-07T11:31:37;10.43;;;5.40;;
66012;SDS011;52783;50.502;8.190;2023-05-07T11:34:03;9.45;;;4.75;;
66012;SDS011;52783;50.502;8.190;2023-05-07T11:36:30;8.55;;;5.18;;
66012;SDS011;52783;50.502;8.190;2023-05-07T11:38:57;8.48;;;5.18;;
66012;SDS011;52783;50.502;8.190;2023-05-07T11:41:22;8.20;;;5.20;;
66012;SDS011;52783;50.502;8.190;2023-05-07T11:43:59;6.25;;;5.03;;
66012;SDS011;52783;50.502;8.190;2023-05-07T11:46:26;7.20;;;4.60;;
66012;SDS011;52783;50.502;8.190;2023-05-07T11:48:52;6.93;;;4.40;;
66012;SDS011;52783;50.502;8.190;2023-05-07T11:51:18;9.13;;;4.70;;
66012;SDS011;52783;50.502;8.190;2023-05-07T11:53:45;7.88;;;5.07;;
66012;SDS011;52783;50.502;8.190;2023-05-07T11:56:12;7.05;;;4.60;;
66012;SDS011;52783;50.502;8.190;2023-05-07T11:58:39;5.63;;;4.70;;
66012;SDS011;52783;50.502;8.190;2023-05-07T12:01:07;10.75;;;4.75;;
66012;SDS011;52783;50.502;8.190;2023-05-07T12:03:34;5.38;;;4.70;;
66012;SDS011;52783;50.502;8.190;2023-05-07T12:06:02;8.05;;;4.90;;
66012;SDS011;52783;50.502;8.190;2023-05-07T12:08:30;6.68;;;4.65;;
66012;SDS011;52783;50.502;8.190;2023-05-07T12:10:55;7.07;;;4.93;;
66012;SDS011;52783;50.502;8.190;2023-05-07T12:13:22;6.55;;;4.80;;
66012;SDS011;52783;50.502;8.190;2023-05-07T12:15:53;8.13;;;5.05;;
66012;SDS011;52783;50.502;8.190;2023-05-07T12:18:20;6.88;;;4.88;;
66012;SDS011;52783;50.502;8.190;2023-05-07T12:20:46;5.95;;;4.38;;
66012;SDS011;52783;50.502;8.190;2023-05-07T12:23:12;6.20;;;4.53;;
66012;SDS011;52783;50.502;8.190;2023-05-07T12:25:38;8.07;;;4.97;;
66012;SDS011;52783;50.502;8.190;2023-05-07T12:28:05;5.65;;;4.78;;
66012;SDS011;52783;50.502;8.190;2023-05-07T12:30:36;12.38;;;5.45;;
66012;SDS011;52783;50.502;8.190;2023-05-07T12:33:02;8.15;;;4.55;;
66012;SDS011;52783;50.502;8.190;2023-05-07T12:35:31;7.90;;;4.43;;
66012;SDS011;52783;50.502;8.190;2023-05-07T12:38:01;10.50;;;4.55;;
66012;SDS011;52783;50.502;8.190;2023-05-07T12:40:42;7.47;;;4.72;;
66012;SDS011;52783;50.502;8.190;2023-05-07T12:45:49;8.93;;;4.95;;
66012;SDS011;52783;50.502;8.190;2023-05-07T12:48:15;7.78;;;4.70;;
66012;SDS011;52783;50.502;8.190;2023-05-07T12:50:41;5.93;;;4.70;;
66012;SDS011;52783;50.502;8.190;2023-05-07T12:53:08;6.18;;;4.32;;
66012;SDS011;52783;50.502;8.190;2023-05-07T12:55:40;7.25;;;5.07;;
66012;SDS011;52783;50.502;8.190;2023-05-07T12:58:06;11.18;;;4.63;;
66012;SDS011;52783;50.502;8.190;2023-05-07T13:00:36;5.28;;;4.28;;
66012;SDS011;52783;50.502;8.190;2023-05-07T13:03:02;8.43;;;4.70;;
66012;SDS011;52783;50.502;8.190;2023-05-07T13:05:28;5.90;;;4.20;;
66012;SDS011;52783;50.502;8.190;2023-05-07T13:07:54;5.80;;;4.30;;
66012;SDS011;52783;50.502;8.190;2023-05-07T13:10:23;7.60;;;3.75;;
66012;SDS011;52783;50.502;8.190;2023-05-07T13:12:49;6.72;;;4.10;;
66012;SDS011;52783;50.502;8.190;2023-05-07T13:15:15;7.30;;;4.38;;
66012;SDS011;52783;50.502;8.190;2023-05-07T13:17:41;6.65;;;4.40;;
66012;SDS011;52783;50.502;8.190;2023-05-07T13:20:08;6.72;;;4.15;;
66012;SDS011;52783;50.502;8.190;2023-05-07T13:22:34;9.50;;;4.50;;
66012;SDS011;52783;50.502;8.190;2023-05-07T13:25:00;5.38;;;3.88;;
66012;SDS011;52783;50.502;8.190;2023-05-07T13:27:26;6.43;;;3.38;;
66012;SDS011;52783;50.502;8.190;2023-05-07T13:29:51;9.15;;;3.80;;
66012;SDS011;52783;50.502;8.190;2023-05-07T13:32:17;7.90;;;4.05;;
66012;SDS011;52783;50.502;8.190;2023-05-07T13:34:43;6.93;;;3.70;;
66012;SDS011;52783;50.502;8.190;2023-05-07T13:37:08;6.10;;;3.97;;
66012;SDS011;52783;50.502;8.190;2023-05-07T13:39:34;5.93;;;3.92;;
66012;SDS011;52783;50.502;8.190;2023-05-07T13:41:59;5.53;;;3.60;;
66012;SDS011;52783;50.502;8.190;2023-05-07T13:44:25;6.57;;;3.67;;
66012;SDS011;52783;50.502;8.190;2023-05-07T13:46:51;4.47;;;3.63;;
66012;SDS011;52783;50.502;8.190;2023-05-07T13:49:17;7.30;;;3.70;;
66012;SDS011;52783;50.502;8.190;2023-05-07T13:51:42;6.63;;;3.63;;
66012;SDS011;52783;50.502;8.190;2023-05-07T13:54:08;5.45;;;3.45;;
66012;SDS011;52783;50.502;8.190;2023-05-07T13:56:33;5.65;;;3.60;;
66012;SDS011;52783;50.502;8.190;2023-05-07T13:58:59;5.45;;;3.42;;
66012;SDS011;52783;50.502;8.190;2023-05-07T14:01:24;5.50;;;3.40;;
66012;SDS011;52783;50.502;8.190;2023-05-07T14:03:50;5.93;;;4.00;;
66012;SDS011;52783;50.502;8.190;2023-05-07T14:06:15;6.32;;;3.47;;
66012;SDS011;52783;50.502;8.190;2023-05-07T14:08:41;6.80;;;3.13;;
66012;SDS011;52783;50.502;8.190;2023-05-07T14:11:07;6.05;;;3.60;;
66012;SDS011;52783;50.502;8.190;2023-05-07T14:13:32;6.88;;;2.92;;
66012;SDS011;52783;50.502;8.190;2023-05-07T14:15:59;4.93;;;3.42;;
66012;SDS011;52783;50.502;8.190;2023-05-07T14:18:25;5.85;;;3.35;;
66012;SDS011;52783;50.502;8.190;2023-05-07T14:20:51;5.55;;;3.40;;
66012;SDS011;52783;50.502;8.190;2023-05-07T14:23:16;4.65;;;3.33;;
66012;SDS011;52783;50.502;8.190;2023-05-07T14:25:44;11.32;;;3.88;;
66012;SDS011;52783;50.502;8.190;2023-05-07T14:28:11;4.50;;;3.75;;
66012;SDS011;52783;50.502;8.190;2023-05-07T14:30:36;5.93;;;3.70;;
66012;SDS011;52783;50.502;8.190;2023-05-07T14:33:02;8.65;;;3.67;;
66012;SDS011;52783;50.502;8.190;2023-05-07T14:35:27;4.50;;;3.42;;
66012;SDS011;52783;50.502;8.190;2023-05-07T14:37:53;7.30;;;3.42;;
66012;SDS011;52783;50.502;8.190;2023-05-07T14:40:18;4.95;;;3.00;;
66012;SDS011;52783;50.502;8.190;2023-05-07T14:42:44;7.10;;;3.05;;
66012;SDS011;52783;50.502;8.190;2023-05-07T14:45:10;8.77;;;3.50;;
66012;SDS011;52783;50.502;8.190;2023-05-07T14:47:35;3.80;;;3.10;;
66012;SDS011;52783;50.502;8.190;2023-05-07T14:50:01;5.68;;;3.65;;
66012;SDS011;52783;50.502;8.190;2023-05-07T14:52:26;5.53;;;3.25;;
66012;SDS011;52783;50.502;8.190;2023-05-07T14:54:52;6.32;;;3.22;;
66012;SDS011;52783;50.502;8.190;2023-05-07T14:57:17;7.13;;;3.38;;
66012;SDS011;52783;50.502;8.190;2023-05-07T14:59:44;4.80;;;3.40;;
66012;SDS011;52783;50.502;8.190;2023-05-07T15:02:11;4.00;;;3.25;;